Wetterdaten: Montag, 24.05.2010
Datum Zeit Temp. A. Feuchte A. Luftdruck Regen Wind Richtung Richtung Sonnenschein UV Solar Windben
24.05.2010 00:00 16,3 C 80 % 1016,7 hPa 0,0 mm 0,0 km/h (0 Bft) N 0 0 min 0 UV-I 0 W/m 0,0 km/h (0 Bft)
24.05.2010 00:10 16,1 C 81 % 1016,5 hPa 0,0 mm 0,0 km/h (0 Bft) N 0 0 min 0 UV-I 0 W/m 0,0 km/h (0 Bft)
24.05.2010 00:20 15,9 C 82 % 1016,5 hPa 0,0 mm 0,0 km/h (0 Bft) W-SW 247 0 min 0 UV-I 0 W/m 1,6 km/h (1 Bft)
24.05.2010 00:30 15,7 C 82 % 1016,4 hPa 0,0 mm 0,0 km/h (0 Bft) N 0 0 min 0 UV-I 0 W/m 0,0 km/h (0 Bft)
24.05.2010 00:40 15,4 C 83 % 1016,4 hPa 0,0 mm 0,0 km/h (0 Bft) N 0 0 min 0 UV-I 0 W/m 0,0 km/h (0 Bft)
24.05.2010 00:50 15,1 C 84 % 1016,3 hPa 0,0 mm 0,0 km/h (0 Bft) N 0 0 min 0 UV-I 0 W/m 0,0 km/h (0 Bft)
24.05.2010 01:00 15,0 C 84 % 1016,3 hPa 0,0 mm 0,0 km/h (0 Bft) N 0 0 min 0 UV-I 0 W/m 0,0 km/h (0 Bft)
24.05.2010 01:10 14,8 C 85 % 1016,2 hPa 0,0 mm 0,0 km/h (0 Bft) N 0 0 min 0 UV-I 0 W/m 0,0 km/h (0 Bft)
24.05.2010 01:20 14,7 C 85 % 1016,2 hPa 0,0 mm 0,0 km/h (0 Bft) N 0 0 min 0 UV-I 0 W/m 0,0 km/h (0 Bft)
24.05.2010 01:30 14,5 C 85 % 1016,2 hPa 0,0 mm 0,0 km/h (0 Bft) N 0 0 min 0 UV-I 0 W/m 0,0 km/h (0 Bft)
24.05.2010 01:40 14,2 C 86 % 1016,1 hPa 0,0 mm 0,0 km/h (0 Bft) N 0 0 min 0 UV-I 0 W/m 0,0 km/h (0 Bft)
24.05.2010 01:50 13,7 C 87 % 1016,2 hPa 0,0 mm 0,0 km/h (0 Bft) N 0 0 min 0 UV-I 0 W/m 0,0 km/h (0 Bft)
24.05.2010 02:00 13,6 C 88 % 1016,1 hPa 0,0 mm 0,0 km/h (0 Bft) N 0 0 min 0 UV-I 0 W/m 0,0 km/h (0 Bft)
24.05.2010 02:10 13,4 C 88 % 1015,9 hPa 0,0 mm 0,0 km/h (0 Bft) N 0 0 min 0 UV-I 0 W/m 0,0 km/h (0 Bft)
24.05.2010 02:20 13,4 C 88 % 1016,0 hPa 0,0 mm 0,0 km/h (0 Bft) N 0 0 min 0 UV-I 0 W/m 0,0 km/h (0 Bft)
24.05.2010 02:30 13,2 C 88 % 1015,9 hPa 0,0 mm 0,0 km/h (0 Bft) N 0 0 min 0 UV-I 0 W/m 0,0 km/h (0 Bft)
24.05.2010 02:40 13,0 C 88 % 1015,8 hPa 0,0 mm 0,0 km/h (0 Bft) N 0 0 min 0 UV-I 0 W/m 0,0 km/h (0 Bft)
24.05.2010 02:50 12,8 C 89 % 1015,7 hPa 0,0 mm 0,0 km/h (0 Bft) N 0 0 min 0 UV-I 0 W/m 0,0 km/h (0 Bft)
24.05.2010 03:00 12,6 C 89 % 1015,6 hPa 0,0 mm 0,0 km/h (0 Bft) N 0 0 min 0 UV-I 0 W/m 0,0 km/h (0 Bft)
24.05.2010 03:10 12,8 C 89 % 1015,6 hPa 0,0 mm 0,0 km/h (0 Bft) N 0 0 min 0 UV-I 0 W/m 0,0 km/h (0 Bft)
24.05.2010 03:20 12,9 C 90 % 1015,5 hPa 0,0 mm 0,0 km/h (0 Bft) W-SW 247 0 min 0 UV-I 0 W/m 1,6 km/h (1 Bft)
24.05.2010 03:30 13,1 C 89 % 1015,4 hPa 0,0 mm 0,0 km/h (0 Bft) N 0 0 min 0 UV-I 0 W/m 0,0 km/h (0 Bft)
24.05.2010 03:40 13,1 C 88 % 1015,3 hPa 0,0 mm 0,0 km/h (0 Bft) W-SW 247 0 min 0 UV-I 0 W/m 1,6 km/h (1 Bft)
24.05.2010 03:50 13,1 C 88 % 1015,3 hPa 0,0 mm 0,0 km/h (0 Bft) N 0 0 min 0 UV-I 0 W/m 0,0 km/h (0 Bft)
24.05.2010 04:00 13,1 C 87 % 1015,1 hPa 0,0 mm 0,0 km/h (0 Bft) N 0 0 min 0 UV-I 0 W/m 0,0 km/h (0 Bft)
24.05.2010 04:10 12,9 C 88 % 1015,0 hPa 0,0 mm 0,0 km/h (0 Bft) N 0 0 min 0 UV-I 0 W/m 0,0 km/h (0 Bft)
24.05.2010 04:20 12,7 C 88 % 1014,9 hPa 0,0 mm 0,0 km/h (0 Bft) N 0 0 min 0 UV-I 0 W/m 0,0 km/h (0 Bft)
24.05.2010 04:30 12,6 C 88 % 1014,7 hPa 0,0 mm 0,0 km/h (0 Bft) N 0 0 min 0 UV-I 0 W/m 0,0 km/h (0 Bft)
24.05.2010 04:40 12,3 C 88 % 1014,7 hPa 0,0 mm 0,0 km/h (0 Bft) N 0 0 min 0 UV-I 0 W/m 0,0 km/h (0 Bft)
24.05.2010 04:50 12,0 C 89 % 1014,6 hPa 0,0 mm 0,0 km/h (0 Bft) N 0 0 min 0 UV-I 0 W/m 0,0 km/h (0 Bft)
24.05.2010 05:00 11,7 C 89 % 1014,5 hPa 0,0 mm 0,0 km/h (0 Bft) N 0 0 min 0 UV-I 0 W/m 0,0 km/h (0 Bft)
24.05.2010 05:10 11,7 C 89 % 1014,3 hPa 0,0 mm 0,0 km/h (0 Bft) N 0 0 min 0 UV-I 0 W/m 0,0 km/h (0 Bft)
24.05.2010 05:20 11,7 C 89 % 1014,3 hPa 0,0 mm 0,0 km/h (0 Bft) N 0 0 min 0 UV-I 0 W/m 0,0 km/h (0 Bft)
24.05.2010 05:30 11,4 C 90 % 1014,2 hPa 0,0 mm 0,0 km/h (0 Bft) N 0 0 min 0 UV-I 0 W/m 0,0 km/h (0 Bft)
24.05.2010 05:40 11,5 C 90 % 1014,1 hPa 0,0 mm 0,0 km/h (0 Bft) N 0 0 min 0 UV-I 0 W/m 0,0 km/h (0 Bft)
24.05.2010 05:50 11,5 C 91 % 1014,0 hPa 0,0 mm 0,0 km/h (0 Bft) N 0 0 min 0 UV-I 7 W/m 0,0 km/h (0 Bft)
24.05.2010 06:00 11,6 C 90 % 1014,1 hPa 0,0 mm 0,0 km/h (0 Bft) N 0 0 min 0 UV-I 14 W/m 0,0 km/h (0 Bft)
24.05.2010 06:10 11,5 C 90 % 1013,9 hPa 0,0 mm 0,0 km/h (0 Bft) O-NO 67 0 min 0 UV-I 19 W/m 1,6 km/h (1 Bft)
24.05.2010 06:20 11,4 C 91 % 1013,8 hPa 0,0 mm 0,0 km/h (0 Bft) N 0 0 min 0 UV-I 30 W/m 0,0 km/h (0 Bft)
24.05.2010 06:30 11,4 C 90 % 1013,7 hPa 0,0 mm 0,0 km/h (0 Bft) N 0 0 min 0 UV-I 30 W/m 0,0 km/h (0 Bft)
24.05.2010 06:40 11,6 C 90 % 1013,7 hPa 0,0 mm 0,0 km/h (0 Bft) N 0 0 min 0 UV-I 30 W/m 0,0 km/h (0 Bft)
24.05.2010 06:50 11,8 C 90 % 1013,4 hPa 0,0 mm 0,0 km/h (0 Bft) NO 45 0 min 0 UV-I 56 W/m 1,6 km/h (1 Bft)
24.05.2010 07:00 12,1 C 90 % 1013,2 hPa 0,0 mm 0,0 km/h (0 Bft) O-NO 67 0 min 0 UV-I 107 W/m 1,6 km/h (1 Bft)
24.05.2010 07:10 12,6 C 88 % 1013,3 hPa 0,0 mm 0,0 km/h (0 Bft) O-NO 67 0 min 1 UV-I 123 W/m 1,6 km/h (1 Bft)
24.05.2010 07:20 13,1 C 87 % 1013,3 hPa 0,0 mm 0,0 km/h (0 Bft) N 0 0 min 1 UV-I 135 W/m 0,0 km/h (0 Bft)
24.05.2010 07:30 13,5 C 87 % 1013,1 hPa 0,0 mm 0,0 km/h (0 Bft) N 0 0 min 1 UV-I 134 W/m 0,0 km/h (0 Bft)
24.05.2010 07:40 13,9 C 86 % 1013,1 hPa 0,0 mm 0,0 km/h (0 Bft) N 0 0 min 1 UV-I 107 W/m 0,0 km/h (0 Bft)
24.05.2010 07:50 14,1 C 87 % 1013,0 hPa 0,0 mm 0,0 km/h (0 Bft) N 0 0 min 1 UV-I 163 W/m 0,0 km/h (0 Bft)
24.05.2010 08:00 14,8 C 85 % 1012,8 hPa 0,0 mm 0,0 km/h (0 Bft) O-NO 57 0 min 1 UV-I 182 W/m 0,0 km/h (0 Bft)
24.05.2010 08:10 14,9 C 84 % 1012,9 hPa 0,0 mm 0,0 km/h (0 Bft) O-NO 67 0 min 1 UV-I 206 W/m 1,6 km/h (1 Bft)
24.05.2010 08:20 15,1 C 84 % 1012,7 hPa 0,0 mm 0,0 km/h (0 Bft) O-NO 67 10 min 1 UV-I 316 W/m 3,2 km/h (1 Bft)
24.05.2010 08:30 15,8 C 82 % 1012,5 hPa 0,0 mm 0,0 km/h (0 Bft) O-NO 67 10 min 2 UV-I 383 W/m 3,2 km/h (1 Bft)
24.05.2010 08:40 16,2 C 80 % 1012,4 hPa 0,0 mm 0,0 km/h (0 Bft) O-NO 67 10 min 2 UV-I 418 W/m 3,2 km/h (1 Bft)
24.05.2010 08:50 16,6 C 79 % 1012,2 hPa 0,0 mm 0,0 km/h (0 Bft) O-NO 67 10 min 2 UV-I 454 W/m 3,2 km/h (1 Bft)
24.05.2010 09:00 17,2 C 76 % 1012,0 hPa 0,0 mm 0,0 km/h (0 Bft) O-SO 112 10 min 2 UV-I 508 W/m 4,8 km/h (1 Bft)
24.05.2010 09:10 17,7 C 75 % 1012,0 hPa 0,0 mm 1,6 km/h (1 Bft) W-SW 247 10 min 2 UV-I 552 W/m 6,4 km/h (2 Bft)
24.05.2010 09:20 18,1 C 73 % 1011,9 hPa 0,0 mm 1,6 km/h (1 Bft) S-SW 202 10 min 2 UV-I 446 W/m 9,7 km/h (2 Bft)
24.05.2010 09:30 18,2 C 73 % 1011,8 hPa 0,0 mm 3,2 km/h (1 Bft) S-SW 202 10 min 2 UV-I 320 W/m 11,3 km/h (2 Bft)
24.05.2010 09:40 18,3 C 73 % 1011,8 hPa 0,0 mm 1,6 km/h (1 Bft) W 270 0 min 2 UV-I 302 W/m 6,4 km/h (2 Bft)
24.05.2010 09:50 18,5 C 72 % 1011,6 hPa 0,0 mm 1,6 km/h (1 Bft) W 270 0 min 3 UV-I 336 W/m 6,4 km/h (2 Bft)
24.05.2010 10:00 19,1 C 69 % 1011,6 hPa 0,0 mm 4,8 km/h (1 Bft) W 270 10 min 3 UV-I 408 W/m 20,9 km/h (4 Bft)
24.05.2010 10:10 19,4 C 66 % 1011,5 hPa 0,0 mm 8,0 km/h (2 Bft) W 270 10 min 4 UV-I 380 W/m 27,4 km/h (4 Bft)
24.05.2010 10:20 19,7 C 65 % 1011,4 hPa 0,0 mm 8,0 km/h (2 Bft) W 270 10 min 4 UV-I 462 W/m 27,4 km/h (4 Bft)
24.05.2010 10:30 19,9 C 65 % 1011,2 hPa 0,0 mm 9,7 km/h (2 Bft) W 270 10 min 4 UV-I 708 W/m 27,4 km/h (4 Bft)
24.05.2010 10:40 20,3 C 63 % 1011,1 hPa 0,0 mm 11,3 km/h (2 Bft) W 270 10 min 5 UV-I 724 W/m 30,6 km/h (5 Bft)
24.05.2010 10:50 20,9 C 63 % 1010,9 hPa 0,0 mm 11,3 km/h (2 Bft) W 270 10 min 5 UV-I 726 W/m 27,4 km/h (4 Bft)
24.05.2010 11:00 21,3 C 61 % 1010,8 hPa 0,0 mm 11,3 km/h (2 Bft) W 270 10 min 5 UV-I 768 W/m 29,0 km/h (5 Bft)
24.05.2010 11:10 21,7 C 61 % 1010,7 hPa 0,0 mm 11,3 km/h (2 Bft) W-SW 247 10 min 5 UV-I 800 W/m 27,4 km/h (4 Bft)
24.05.2010 11:20 22,1 C 58 % 1010,6 hPa 0,0 mm 11,3 km/h (2 Bft) W 270 10 min 6 UV-I 812 W/m 27,4 km/h (4 Bft)
24.05.2010 11:30 22,3 C 57 % 1010,5 hPa 0,0 mm 14,5 km/h (3 Bft) W-SW 247 10 min 6 UV-I 826 W/m 30,6 km/h (5 Bft)
24.05.2010 11:40 22,4 C 57 % 1010,3 hPa 0,0 mm 11,3 km/h (2 Bft) W-SW 247 10 min 6 UV-I 826 W/m 27,4 km/h (4 Bft)
24.05.2010 11:50 22,7 C 58 % 1010,2 hPa 0,0 mm 11,3 km/h (2 Bft) W-SW 247 10 min 6 UV-I 837 W/m 30,6 km/h (5 Bft)
24.05.2010 12:00 22,9 C 56 % 1010,1 hPa 0,0 mm 12,9 km/h (3 Bft) W-SW 247 10 min 7 UV-I 851 W/m 25,7 km/h (4 Bft)
24.05.2010 12:10 23,1 C 54 % 1010,0 hPa 0,0 mm 12,9 km/h (3 Bft) W-SW 247 10 min 7 UV-I 861 W/m 25,7 km/h (4 Bft)
24.05.2010 12:20 23,3 C 54 % 1009,8 hPa 0,0 mm 12,9 km/h (3 Bft) W 270 10 min 7 UV-I 874 W/m 30,6 km/h (5 Bft)
24.05.2010 12:30 23,6 C 54 % 1009,7 hPa 0,0 mm 11,3 km/h (2 Bft) W-SW 247 10 min 7 UV-I 881 W/m 27,4 km/h (4 Bft)
24.05.2010 12:40 23,8 C 53 % 1009,4 hPa 0,0 mm 12,9 km/h (3 Bft) W-SW 247 10 min 7 UV-I 898 W/m 29,0 km/h (5 Bft)
24.05.2010 12:50 24,1 C 51 % 1009,3 hPa 0,0 mm 11,3 km/h (2 Bft) W-SW 247 10 min 7 UV-I 902 W/m 29,0 km/h (5 Bft)
24.05.2010 13:00 24,2 C 50 % 1009,1 hPa 0,0 mm 12,9 km/h (3 Bft) W-SW 247 10 min 7 UV-I 919 W/m 32,2 km/h (5 Bft)
24.05.2010 13:10 24,4 C 50 % 1009,0 hPa 0,0 mm 11,3 km/h (2 Bft) W 270 10 min 7 UV-I 965 W/m 29,0 km/h (5 Bft)
24.05.2010 13:20 24,4 C 51 % 1009,0 hPa 0,0 mm 11,3 km/h (2 Bft) W 270 10 min 7 UV-I 969 W/m 29,0 km/h (5 Bft)
24.05.2010 13:30 24,5 C 48 % 1008,8 hPa 0,0 mm 16,1 km/h (3 Bft) W-SW 247 10 min 8 UV-I 1083 W/m 32,2 km/h (5 Bft)
24.05.2010 13:40 24,2 C 50 % 1008,7 hPa 0,0 mm 14,5 km/h (3 Bft) W-SW 247 10 min 7 UV-I 1002 W/m 32,2 km/h (5 Bft)
24.05.2010 13:50 24,2 C 48 % 1008,7 hPa 0,0 mm 14,5 km/h (3 Bft) W 270 10 min 7 UV-I 988 W/m 37,0 km/h (5 Bft)
24.05.2010 14:00 24,8 C 47 % 1008,5 hPa 0,0 mm 12,9 km/h (3 Bft) W 270 10 min 7 UV-I 983 W/m 30,6 km/h (5 Bft)
24.05.2010 14:10 24,3 C 50 % 1008,2 hPa 0,0 mm 12,9 km/h (3 Bft) W 270 0 min 6 UV-I 236 W/m 32,2 km/h (5 Bft)
24.05.2010 14:20 24,5 C 47 % 1008,1 hPa 0,0 mm 12,9 km/h (3 Bft) W-SW 247 10 min 7 UV-I 1053 W/m 33,8 km/h (5 Bft)
24.05.2010 14:30 24,4 C 50 % 1008,1 hPa 0,0 mm 16,1 km/h (3 Bft) W 270 0 min 3 UV-I 258 W/m 35,4 km/h (5 Bft)
24.05.2010 14:40 23,5 C 54 % 1008,4 hPa 0,0 mm 12,9 km/h (3 Bft) W 270 0 min 2 UV-I 139 W/m 33,8 km/h (5 Bft)
24.05.2010 14:50 21,7 C 66 % 1008,4 hPa 0,0 mm 9,7 km/h (2 Bft) W-NW 292 0 min 4 UV-I 248 W/m 24,1 km/h (4 Bft)
24.05.2010 15:00 21,5 C 60 % 1008,4 hPa 0,0 mm 8,0 km/h (2 Bft) W 270 10 min 5 UV-I 879 W/m 24,1 km/h (4 Bft)
24.05.2010 15:10 22,8 C 57 % 1008,3 hPa 0,0 mm 9,7 km/h (2 Bft) W 270 10 min 6 UV-I 886 W/m 30,6 km/h (5 Bft)
24.05.2010 15:20 23,6 C 57 % 1008,2 hPa 0,0 mm 9,7 km/h (2 Bft) W 270 10 min 6 UV-I 893 W/m 22,5 km/h (4 Bft)
24.05.2010 15:30 24,1 C 52 % 1008,2 hPa 0,0 mm 11,3 km/h (2 Bft) W 270 10 min 6 UV-I 939 W/m 30,6 km/h (5 Bft)
24.05.2010 15:40 24,2 C 49 % 1008,1 hPa 0,0 mm 14,5 km/h (3 Bft) W 270 10 min 5 UV-I 846 W/m 38,6 km/h (5 Bft)
24.05.2010 15:50 24,4 C 46 % 1008,1 hPa 0,0 mm 17,7 km/h (3 Bft) W 270 10 min 5 UV-I 805 W/m 43,5 km/h (6 Bft)
24.05.2010 16:00 24,6 C 44 % 1008,1 hPa 0,0 mm 13,5 km/h (3 Bft) W-NW 290 10 min 5 UV-I 769 W/m 25,7 km/h (4 Bft)
24.05.2010 16:10 24,3 C 45 % 1008,1 hPa 0,0 mm 14,5 km/h (3 Bft) W-NW 292 10 min 5 UV-I 821 W/m 33,8 km/h (5 Bft)
24.05.2010 16:20 24,2 C 45 % 1008,1 hPa 0,0 mm 14,5 km/h (3 Bft) W 270 10 min 4 UV-I 793 W/m 41,8 km/h (6 Bft)
24.05.2010 16:30 24,4 C 44 % 1008,1 hPa 0,0 mm 12,9 km/h (3 Bft) W-NW 292 10 min 4 UV-I 798 W/m 30,6 km/h (5 Bft)
24.05.2010 16:40 24,1 C 42 % 1008,2 hPa 0,0 mm 14,5 km/h (3 Bft) W-NW 292 10 min 4 UV-I 728 W/m 37,0 km/h (5 Bft)
24.05.2010 16:50 23,9 C 43 % 1008,2 hPa 0,0 mm 16,1 km/h (3 Bft) W-NW 292 10 min 4 UV-I 715 W/m 35,4 km/h (5 Bft)
24.05.2010 17:00 23,8 C 44 % 1008,2 hPa 0,0 mm 14,5 km/h (3 Bft) W-NW 292 10 min 3 UV-I 687 W/m 38,6 km/h (5 Bft)
24.05.2010 17:10 23,8 C 44 % 1008,3 hPa 0,0 mm 11,3 km/h (2 Bft) W-NW 292 10 min 3 UV-I 715 W/m 29,0 km/h (5 Bft)
24.05.2010 17:20 23,6 C 45 % 1008,3 hPa 0,0 mm 9,7 km/h (2 Bft) W-NW 292 10 min 3 UV-I 645 W/m 24,1 km/h (4 Bft)
24.05.2010 17:30 23,6 C 46 % 1008,4 hPa 0,0 mm 9,7 km/h (2 Bft) W-NW 292 10 min 3 UV-I 615 W/m 24,1 km/h (4 Bft)
24.05.2010 17:40 23,4 C 46 % 1008,4 hPa 0,0 mm 11,3 km/h (2 Bft) NW 315 10 min 2 UV-I 621 W/m 30,6 km/h (5 Bft)
24.05.2010 17:50 22,7 C 46 % 1008,5 hPa 0,0 mm 12,9 km/h (3 Bft) W-NW 292 10 min 2 UV-I 589 W/m 29,0 km/h (5 Bft)
24.05.2010 18:00 23,1 C 45 % 1008,6 hPa 0,0 mm 9,7 km/h (2 Bft) W-NW 292 10 min 2 UV-I 561 W/m 32,2 km/h (5 Bft)
24.05.2010 18:10 22,8 C 46 % 1008,6 hPa 0,0 mm 12,9 km/h (3 Bft) NW 315 10 min 2 UV-I 531 W/m 32,2 km/h (5 Bft)
24.05.2010 18:20 22,6 C 48 % 1008,6 hPa 0,0 mm 8,0 km/h (2 Bft) W-NW 292 10 min 2 UV-I 439 W/m 27,4 km/h (4 Bft)
24.05.2010 18:30 22,4 C 47 % 1008,6 hPa 0,0 mm 9,7 km/h (2 Bft) W-NW 292 10 min 1 UV-I 404 W/m 27,4 km/h (4 Bft)
24.05.2010 18:40 22,2 C 48 % 1008,7 hPa 0,0 mm 11,3 km/h (2 Bft) W-NW 292 10 min 1 UV-I 373 W/m 25,7 km/h (4 Bft)
24.05.2010 18:50 22,1 C 48 % 1008,6 hPa 0,0 mm 9,7 km/h (2 Bft) NW 315 10 min 1 UV-I 345 W/m 25,7 km/h (4 Bft)
24.05.2010 19:00 21,8 C 49 % 1008,6 hPa 0,0 mm 9,7 km/h (2 Bft) W-NW 292 10 min 1 UV-I 320 W/m 27,4 km/h (4 Bft)
24.05.2010 19:10 21,6 C 49 % 1008,6 hPa 0,0 mm 11,3 km/h (2 Bft) W-NW 292 10 min 1 UV-I 294 W/m 27,4 km/h (4 Bft)
24.05.2010 19:20 21,4 C 50 % 1008,6 hPa 0,0 mm 11,3 km/h (2 Bft) W-NW 292 10 min 1 UV-I 250 W/m 27,4 km/h (4 Bft)
24.05.2010 19:30 21,3 C 50 % 1008,6 hPa 0,0 mm 8,0 km/h (2 Bft) W-NW 292 10 min 1 UV-I 239 W/m 19,3 km/h (3 Bft)
24.05.2010 19:40 21,3 C 51 % 1008,6 hPa 0,0 mm 6,4 km/h (2 Bft) W-NW 292 10 min 1 UV-I 199 W/m 24,1 km/h (4 Bft)
24.05.2010 19:50 21,0 C 52 % 1008,6 hPa 0,0 mm 6,4 km/h (2 Bft) W-NW 292 10 min 1 UV-I 181 W/m 17,7 km/h (3 Bft)
24.05.2010 20:00 20,7 C 52 % 1008,6 hPa 0,0 mm 8,0 km/h (2 Bft) W-NW 292 10 min 1 UV-I 146 W/m 22,5 km/h (4 Bft)
24.05.2010 20:10 20,4 C 54 % 1008,6 hPa 0,0 mm 6,4 km/h (2 Bft) NW 315 10 min 0 UV-I 123 W/m 17,7 km/h (3 Bft)
24.05.2010 20:20 20,1 C 54 % 1008,6 hPa 0,0 mm 4,8 km/h (1 Bft) NW 315 0 min 0 UV-I 51 W/m 14,5 km/h (3 Bft)
24.05.2010 20:30 19,9 C 55 % 1008,7 hPa 0,0 mm 4,8 km/h (1 Bft) W-NW 292 0 min 0 UV-I 39 W/m 17,7 km/h (3 Bft)
24.05.2010 20:40 19,6 C 55 % 1008,7 hPa 0,0 mm 8,0 km/h (2 Bft) W-NW 292 0 min 0 UV-I 35 W/m 24,1 km/h (4 Bft)
24.05.2010 20:50 19,4 C 55 % 1008,7 hPa 0,0 mm 6,4 km/h (2 Bft) W-NW 292 0 min 0 UV-I 28 W/m 20,9 km/h (4 Bft)
24.05.2010 21:00 19,1 C 56 % 1008,7 hPa 0,0 mm 4,8 km/h (1 Bft) W-NW 292 10 min 0 UV-I 23 W/m 17,7 km/h (3 Bft)
24.05.2010 21:10 18,9 C 57 % 1008,7 hPa 0,0 mm 4,8 km/h (1 Bft) NW 315 10 min 0 UV-I 16 W/m 19,3 km/h (3 Bft)
24.05.2010 21:20 18,6 C 58 % 1008,8 hPa 0,0 mm 4,8 km/h (1 Bft) W-NW 292 0 min 0 UV-I 11 W/m 14,5 km/h (3 Bft)
24.05.2010 21:30 18,4 C 58 % 1008,9 hPa 0,0 mm 4,8 km/h (1 Bft) W-NW 292 0 min 0 UV-I 5 W/m 17,7 km/h (3 Bft)
24.05.2010 21:40 18,2 C 59 % 1009,0 hPa 0,0 mm 4,8 km/h (1 Bft) W-NW 292 0 min 0 UV-I 0 W/m 16,1 km/h (3 Bft)
24.05.2010 21:50 17,9 C 60 % 1009,0 hPa 0,0 mm 3,2 km/h (1 Bft) W-NW 292 0 min 0 UV-I 0 W/m 17,7 km/h (3 Bft)
24.05.2010 22:00 17,7 C 60 % 1009,1 hPa 0,0 mm 4,8 km/h (1 Bft) NW 315 0 min 0 UV-I 0 W/m 17,7 km/h (3 Bft)
24.05.2010 22:10 17,6 C 61 % 1009,2 hPa 0,0 mm 3,2 km/h (1 Bft) W-NW 292 0 min 0 UV-I 0 W/m 16,1 km/h (3 Bft)
24.05.2010 22:20 17,3 C 62 % 1009,3 hPa 0,0 mm 3,2 km/h (1 Bft) W-NW 292 0 min 0 UV-I 0 W/m 14,5 km/h (3 Bft)
24.05.2010 22:30 17,1 C 64 % 1009,3 hPa 0,0 mm 1,6 km/h (1 Bft) NW 315 0 min 0 UV-I 0 W/m 9,7 km/h (2 Bft)
24.05.2010 22:40 16,8 C 65 % 1009,4 hPa 0,0 mm 0,0 km/h (0 Bft) W-NW 292 0 min 0 UV-I 0 W/m 4,8 km/h (1 Bft)
24.05.2010 22:50 16,4 C 69 % 1009,5 hPa 0,0 mm 1,6 km/h (1 Bft) N-NO 22 0 min 0 UV-I 0 W/m 8,0 km/h (2 Bft)
24.05.2010 23:00 16,0 C 73 % 1009,4 hPa 0,0 mm 1,6 km/h (1 Bft) N-NO 22 0 min 0 UV-I 0 W/m 9,7 km/h (2 Bft)
24.05.2010 23:10 15,7 C 75 % 1009,6 hPa 0,0 mm 1,6 km/h (1 Bft) N-NO 22 0 min 0 UV-I 0 W/m 8,0 km/h (2 Bft)
24.05.2010 23:20 15,3 C 77 % 1009,6 hPa 0,0 mm 3,2 km/h (1 Bft) N-NO 22 0 min 0 UV-I 0 W/m 11,3 km/h (2 Bft)
24.05.2010 23:30 15,0 C 79 % 1009,9 hPa 0,0 mm 3,2 km/h (1 Bft) N-NO 22 0 min 0 UV-I 0 W/m 16,1 km/h (3 Bft)
24.05.2010 23:40 14,8 C 80 % 1009,9 hPa 0,0 mm 1,6 km/h (1 Bft) N 360 0 min 0 UV-I 0 W/m 6,4 km/h (2 Bft)
24.05.2010 23:50 14,6 C 80 % 1010,0 hPa 0,0 mm 0,0 km/h (0 Bft) N 360 0 min 0 UV-I 0 W/m 4,8 km/h (1 Bft)
_ Min-Zeit 05:30 16:40 14:20 - 00:00 - - - - - 00:00
Minimum _ 11,4 C 42 % 1008,1 hPa - 0,0 km/h (0 Bft) - - - - - 0,0 km/h (0 Bft)
_ Max-Zeit 14:20 05:50 00:00 00:00 15:50 - - 08:20 13:30 13:30 15:50
Maximum _ 25,1 C 91 % 1016,7 hPa 0,0 mm 17,7 km/h
W (3 Bft)
- - 10 min 8 UV-I 1083 W/m 43,5 km/h
W (6 Bft)
Durchschnitt _ 18,3 C 68 % 1011,3 hPa #0,0 mm 5,5 km/h (1 Bft) W-NW - #11:20 h 4 UV-I 485 W/m 15,2 km/h (3 Bft)